sensor_id;sensor_type;location;lat;lon;timestamp;P1;durP1;ratioP1;P2;durP2;ratioP2
59468;SDS011;45277;52.768;18.262;2023-02-28T00:00:59;30.73;;;13.65;;
59468;SDS011;45277;52.768;18.262;2023-02-28T00:02:31;30.30;;;14.35;;
59468;SDS011;45277;52.768;18.262;2023-02-28T00:04:02;34.70;;;13.93;;
59468;SDS011;45277;52.768;18.262;2023-02-28T00:05:34;31.83;;;14.10;;
59468;SDS011;45277;52.768;18.262;2023-02-28T00:07:05;28.77;;;13.93;;
59468;SDS011;45277;52.768;18.262;2023-02-28T00:08:37;29.33;;;14.80;;
59468;SDS011;45277;52.768;18.262;2023-02-28T00:10:14;32.67;;;15.15;;
59468;SDS011;45277;52.768;18.262;2023-02-28T00:11:51;33.13;;;14.93;;
59468;SDS011;45277;52.768;18.262;2023-02-28T00:13:22;31.40;;;14.75;;
59468;SDS011;45277;52.768;18.262;2023-02-28T00:14:54;27.70;;;13.18;;
59468;SDS011;45277;52.768;18.262;2023-02-28T00:16:25;36.20;;;14.38;;
59468;SDS011;45277;52.768;18.262;2023-02-28T00:17:57;28.20;;;14.23;;
59468;SDS011;45277;52.768;18.262;2023-02-28T00:19:29;30.88;;;13.82;;
59468;SDS011;45277;52.768;18.262;2023-02-28T00:21:00;29.58;;;14.98;;
59468;SDS011;45277;52.768;18.262;2023-02-28T00:22:31;36.63;;;15.02;;
59468;SDS011;45277;52.768;18.262;2023-02-28T00:24:03;30.13;;;14.23;;
59468;SDS011;45277;52.768;18.262;2023-02-28T00:25:34;28.20;;;14.05;;
59468;SDS011;45277;52.768;18.262;2023-02-28T00:27:06;30.92;;;14.25;;
59468;SDS011;45277;52.768;18.262;2023-02-28T00:28:38;29.85;;;13.27;;
59468;SDS011;45277;52.768;18.262;2023-02-28T00:30:10;32.45;;;14.73;;
59468;SDS011;45277;52.768;18.262;2023-02-28T00:31:43;29.67;;;14.88;;
59468;SDS011;45277;52.768;18.262;2023-02-28T00:33:15;30.77;;;13.32;;
59468;SDS011;45277;52.768;18.262;2023-02-28T00:34:47;30.23;;;14.38;;
59468;SDS011;45277;52.768;18.262;2023-02-28T00:36:18;32.38;;;14.18;;
59468;SDS011;45277;52.768;18.262;2023-02-28T00:37:49;29.88;;;13.63;;
59468;SDS011;45277;52.768;18.262;2023-02-28T00:39:21;33.35;;;14.30;;
59468;SDS011;45277;52.768;18.262;2023-02-28T00:40:53;26.98;;;13.60;;
59468;SDS011;45277;52.768;18.262;2023-02-28T00:42:25;32.05;;;14.63;;
59468;SDS011;45277;52.768;18.262;2023-02-28T00:43:56;33.15;;;14.02;;
59468;SDS011;45277;52.768;18.262;2023-02-28T00:45:27;35.10;;;14.40;;
59468;SDS011;45277;52.768;18.262;2023-02-28T00:46:59;33.25;;;14.40;;
59468;SDS011;45277;52.768;18.262;2023-02-28T00:48:31;33.72;;;15.40;;
59468;SDS011;45277;52.768;18.262;2023-02-28T00:50:03;28.63;;;14.52;;
59468;SDS011;45277;52.768;18.262;2023-02-28T00:51:36;29.65;;;13.68;;
59468;SDS011;45277;52.768;18.262;2023-02-28T00:53:07;28.60;;;13.55;;
59468;SDS011;45277;52.768;18.262;2023-02-28T00:54:38;30.70;;;14.85;;
59468;SDS011;45277;52.768;18.262;2023-02-28T00:56:10;32.58;;;14.00;;
59468;SDS011;45277;52.768;18.262;2023-02-28T00:57:41;35.15;;;14.35;;
59468;SDS011;45277;52.768;18.262;2023-02-28T00:59:13;35.88;;;15.60;;
59468;SDS011;45277;52.768;18.262;2023-02-28T01:00:46;33.47;;;16.17;;
59468;SDS011;45277;52.768;18.262;2023-02-28T01:02:19;32.83;;;16.42;;
59468;SDS011;45277;52.768;18.262;2023-02-28T01:03:52;30.23;;;12.77;;
59468;SDS011;45277;52.768;18.262;2023-02-28T01:05:23;29.52;;;14.30;;
59468;SDS011;45277;52.768;18.262;2023-02-28T01:06:55;29.08;;;13.43;;
59468;SDS011;45277;52.768;18.262;2023-02-28T01:08:26;33.95;;;14.73;;
59468;SDS011;45277;52.768;18.262;2023-02-28T01:09:58;32.38;;;14.45;;
59468;SDS011;45277;52.768;18.262;2023-02-28T01:11:30;36.30;;;15.13;;
59468;SDS011;45277;52.768;18.262;2023-02-28T01:13:02;31.70;;;14.73;;
59468;SDS011;45277;52.768;18.262;2023-02-28T01:14:34;28.95;;;14.05;;
59468;SDS011;45277;52.768;18.262;2023-02-28T01:16:06;33.50;;;14.35;;
59468;SDS011;45277;52.768;18.262;2023-02-28T01:17:37;32.10;;;15.18;;
59468;SDS011;45277;52.768;18.262;2023-02-28T01:19:09;29.73;;;14.82;;
59468;SDS011;45277;52.768;18.262;2023-02-28T01:20:41;29.30;;;14.05;;
59468;SDS011;45277;52.768;18.262;2023-02-28T01:22:12;33.30;;;14.65;;
59468;SDS011;45277;52.768;18.262;2023-02-28T01:23:44;33.13;;;15.48;;
59468;SDS011;45277;52.768;18.262;2023-02-28T01:25:17;27.75;;;13.80;;
59468;SDS011;45277;52.768;18.262;2023-02-28T01:26:48;30.70;;;14.38;;
59468;SDS011;45277;52.768;18.262;2023-02-28T01:28:20;29.55;;;15.60;;
59468;SDS011;45277;52.768;18.262;2023-02-28T01:29:51;28.83;;;14.63;;
59468;SDS011;45277;52.768;18.262;2023-02-28T01:31:23;32.15;;;15.88;;
59468;SDS011;45277;52.768;18.262;2023-02-28T01:32:55;30.65;;;15.40;;
59468;SDS011;45277;52.768;18.262;2023-02-28T01:34:26;31.60;;;13.95;;
59468;SDS011;45277;52.768;18.262;2023-02-28T01:35:58;31.45;;;15.68;;
59468;SDS011;45277;52.768;18.262;2023-02-28T01:37:34;31.33;;;14.50;;
59468;SDS011;45277;52.768;18.262;2023-02-28T01:39:06;32.72;;;15.13;;
59468;SDS011;45277;52.768;18.262;2023-02-28T01:40:37;27.48;;;15.98;;
59468;SDS011;45277;52.768;18.262;2023-02-28T01:42:09;28.23;;;13.90;;
59468;SDS011;45277;52.768;18.262;2023-02-28T01:47:02;28.60;;;14.52;;
59468;SDS011;45277;52.768;18.262;2023-02-28T01:48:34;33.42;;;14.90;;
59468;SDS011;45277;52.768;18.262;2023-02-28T01:50:10;32.75;;;15.70;;
59468;SDS011;45277;52.768;18.262;2023-02-28T01:51:48;30.75;;;15.77;;
59468;SDS011;45277;52.768;18.262;2023-02-28T01:53:24;41.00;;;16.83;;
59468;SDS011;45277;52.768;18.262;2023-02-28T01:56:35;34.00;;;15.30;;
59468;SDS011;45277;52.768;18.262;2023-02-28T01:58:07;31.77;;;14.25;;
59468;SDS011;45277;52.768;18.262;2023-02-28T01:59:45;32.35;;;15.43;;
59468;SDS011;45277;52.768;18.262;2023-02-28T02:04:07;42.20;;;18.00;;
59468;SDS011;45277;52.768;18.262;2023-02-28T02:05:39;41.83;;;17.60;;
59468;SDS011;45277;52.768;18.262;2023-02-28T02:07:12;43.03;;;18.45;;
59468;SDS011;45277;52.768;18.262;2023-02-28T02:08:44;43.47;;;20.23;;
59468;SDS011;45277;52.768;18.262;2023-02-28T02:10:27;43.10;;;18.83;;
59468;SDS011;45277;52.768;18.262;2023-02-28T02:12:17;41.03;;;18.20;;
59468;SDS011;45277;52.768;18.262;2023-02-28T02:14:33;42.63;;;18.23;;
59468;SDS011;45277;52.768;18.262;2023-02-28T02:16:23;42.33;;;16.98;;
59468;SDS011;45277;52.768;18.262;2023-02-28T02:18:23;38.80;;;17.40;;
59468;SDS011;45277;52.768;18.262;2023-02-28T02:25:56;40.30;;;17.50;;
59468;SDS011;45277;52.768;18.262;2023-02-28T02:31:33;39.20;;;16.95;;
59468;SDS011;45277;52.768;18.262;2023-02-28T02:36:53;36.50;;;17.60;;
59468;SDS011;45277;52.768;18.262;2023-02-28T02:38:34;34.92;;;16.95;;
59468;SDS011;45277;52.768;18.262;2023-02-28T02:40:20;31.27;;;14.85;;
59468;SDS011;45277;52.768;18.262;2023-02-28T02:41:56;34.00;;;16.80;;
59468;SDS011;45277;52.768;18.262;2023-02-28T02:43:36;34.50;;;16.40;;
59468;SDS011;45277;52.768;18.262;2023-02-28T02:45:25;41.85;;;17.02;;
59468;SDS011;45277;52.768;18.262;2023-02-28T02:47:08;41.08;;;17.17;;
59468;SDS011;45277;52.768;18.262;2023-02-28T02:48:42;31.92;;;16.45;;
59468;SDS011;45277;52.768;18.262;2023-02-28T02:50:22;35.75;;;15.65;;
59468;SDS011;45277;52.768;18.262;2023-02-28T02:52:00;33.38;;;15.77;;
59468;SDS011;45277;52.768;18.262;2023-02-28T02:53:41;35.88;;;16.23;;
59468;SDS011;45277;52.768;18.262;2023-02-28T02:55:19;35.45;;;15.60;;
59468;SDS011;45277;52.768;18.262;2023-02-28T02:56:52;34.13;;;16.38;;
59468;SDS011;45277;52.768;18.262;2023-02-28T02:58:25;42.10;;;17.98;;
59468;SDS011;45277;52.768;18.262;2023-02-28T03:00:02;41.97;;;16.55;;
59468;SDS011;45277;52.768;18.262;2023-02-28T03:01:35;36.15;;;17.48;;
59468;SDS011;45277;52.768;18.262;2023-02-28T03:03:09;32.55;;;17.58;;
59468;SDS011;45277;52.768;18.262;2023-02-28T03:04:52;37.90;;;17.45;;
59468;SDS011;45277;52.768;18.262;2023-02-28T03:06:31;36.10;;;17.55;;
59468;SDS011;45277;52.768;18.262;2023-02-28T03:08:03;38.28;;;18.60;;
59468;SDS011;45277;52.768;18.262;2023-02-28T03:09:36;37.15;;;18.17;;
59468;SDS011;45277;52.768;18.262;2023-02-28T03:11:10;32.92;;;17.65;;
59468;SDS011;45277;52.768;18.262;2023-02-28T03:12:51;32.85;;;17.70;;
59468;SDS011;45277;52.768;18.262;2023-02-28T03:14:51;34.08;;;17.15;;
59468;SDS011;45277;52.768;18.262;2023-02-28T03:16:40;32.70;;;16.85;;
59468;SDS011;45277;52.768;18.262;2023-02-28T03:18:49;35.03;;;17.83;;
59468;SDS011;45277;52.768;18.262;2023-02-28T03:22:37;43.05;;;19.77;;
59468;SDS011;45277;52.768;18.262;2023-02-28T03:26:19;39.17;;;18.52;;
59468;SDS011;45277;52.768;18.262;2023-02-28T03:29:58;43.13;;;18.40;;
59468;SDS011;45277;52.768;18.262;2023-02-28T03:31:43;42.03;;;17.98;;
59468;SDS011;45277;52.768;18.262;2023-02-28T03:36:07;35.72;;;18.27;;
59468;SDS011;45277;52.768;18.262;2023-02-28T03:38:03;41.60;;;19.20;;
59468;SDS011;45277;52.768;18.262;2023-02-28T03:40:00;39.78;;;18.20;;
59468;SDS011;45277;52.768;18.262;2023-02-28T03:41:48;32.95;;;17.42;;
59468;SDS011;45277;52.768;18.262;2023-02-28T03:43:31;40.50;;;18.15;;
59468;SDS011;45277;52.768;18.262;2023-02-28T03:45:10;40.85;;;17.85;;
59468;SDS011;45277;52.768;18.262;2023-02-28T03:46:48;36.90;;;15.48;;
59468;SDS011;45277;52.768;18.262;2023-02-28T03:48:40;41.65;;;17.35;;
59468;SDS011;45277;52.768;18.262;2023-02-28T03:50:17;38.08;;;17.15;;
59468;SDS011;45277;52.768;18.262;2023-02-28T03:51:52;39.13;;;18.70;;
59468;SDS011;45277;52.768;18.262;2023-02-28T03:53:37;42.83;;;19.02;;
59468;SDS011;45277;52.768;18.262;2023-02-28T03:55:12;30.33;;;16.88;;
59468;SDS011;45277;52.768;18.262;2023-02-28T03:57:34;36.92;;;17.70;;
59468;SDS011;45277;52.768;18.262;2023-02-28T03:58:49;34.63;;;16.98;;
59468;SDS011;45277;52.768;18.262;2023-02-28T04:00:30;39.97;;;18.13;;
59468;SDS011;45277;52.768;18.262;2023-02-28T04:02:06;45.05;;;20.23;;
59468;SDS011;45277;52.768;18.262;2023-02-28T04:03:38;39.15;;;17.60;;
59468;SDS011;45277;52.768;18.262;2023-02-28T04:05:10;36.47;;;17.75;;
59468;SDS011;45277;52.768;18.262;2023-02-28T04:06:42;37.50;;;18.15;;
59468;SDS011;45277;52.768;18.262;2023-02-28T04:08:13;48.58;;;18.98;;
59468;SDS011;45277;52.768;18.262;2023-02-28T04:09:45;37.40;;;17.08;;
59468;SDS011;45277;52.768;18.262;2023-02-28T04:11:18;33.33;;;16.88;;
59468;SDS011;45277;52.768;18.262;2023-02-28T04:12:58;34.08;;;17.73;;
59468;SDS011;45277;52.768;18.262;2023-02-28T04:14:29;35.47;;;18.10;;
59468;SDS011;45277;52.768;18.262;2023-02-28T04:16:01;41.38;;;18.95;;
59468;SDS011;45277;52.768;18.262;2023-02-28T04:17:32;32.80;;;17.35;;
59468;SDS011;45277;52.768;18.262;2023-02-28T04:19:04;39.63;;;18.42;;
59468;SDS011;45277;52.768;18.262;2023-02-28T04:20:37;39.00;;;17.70;;
59468;SDS011;45277;52.768;18.262;2023-02-28T04:22:09;40.83;;;18.13;;
59468;SDS011;45277;52.768;18.262;2023-02-28T04:23:41;33.40;;;17.00;;
59468;SDS011;45277;52.768;18.262;2023-02-28T04:25:12;34.65;;;16.50;;
59468;SDS011;45277;52.768;18.262;2023-02-28T04:26:45;39.40;;;17.88;;
59468;SDS011;45277;52.768;18.262;2023-02-28T04:28:18;39.60;;;18.63;;
59468;SDS011;45277;52.768;18.262;2023-02-28T04:29:49;39.17;;;17.45;;
59468;SDS011;45277;52.768;18.262;2023-02-28T04:31:21;36.72;;;16.30;;
59468;SDS011;45277;52.768;18.262;2023-02-28T04:32:52;32.85;;;17.23;;
59468;SDS011;45277;52.768;18.262;2023-02-28T04:34:25;38.42;;;18.83;;
59468;SDS011;45277;52.768;18.262;2023-02-28T04:36:04;36.85;;;17.05;;
59468;SDS011;45277;52.768;18.262;2023-02-28T04:37:39;33.92;;;16.52;;
59468;SDS011;45277;52.768;18.262;2023-02-28T04:39:10;33.50;;;17.65;;
59468;SDS011;45277;52.768;18.262;2023-02-28T04:40:41;30.58;;;16.45;;
59468;SDS011;45277;52.768;18.262;2023-02-28T04:42:13;31.80;;;15.73;;
59468;SDS011;45277;52.768;18.262;2023-02-28T04:43:45;30.85;;;17.35;;
59468;SDS011;45277;52.768;18.262;2023-02-28T04:45:16;35.38;;;16.80;;
59468;SDS011;45277;52.768;18.262;2023-02-28T04:46:48;41.00;;;17.05;;
59468;SDS011;45277;52.768;18.262;2023-02-28T04:48:20;38.15;;;18.67;;
59468;SDS011;45277;52.768;18.262;2023-02-28T04:49:51;37.72;;;18.95;;
59468;SDS011;45277;52.768;18.262;2023-02-28T04:51:23;35.00;;;17.73;;
59468;SDS011;45277;52.768;18.262;2023-02-28T04:52:54;32.85;;;17.50;;
59468;SDS011;45277;52.768;18.262;2023-02-28T04:54:26;40.25;;;17.38;;
59468;SDS011;45277;52.768;18.262;2023-02-28T04:55:59;33.55;;;16.27;;
59468;SDS011;45277;52.768;18.262;2023-02-28T04:57:30;32.35;;;17.35;;
59468;SDS011;45277;52.768;18.262;2023-02-28T04:59:04;36.05;;;16.52;;
59468;SDS011;45277;52.768;18.262;2023-02-28T05:00:36;32.88;;;16.75;;
59468;SDS011;45277;52.768;18.262;2023-02-28T05:02:07;35.83;;;16.67;;
59468;SDS011;45277;52.768;18.262;2023-02-28T05:03:39;34.30;;;16.83;;
59468;SDS011;45277;52.768;18.262;2023-02-28T05:05:13;39.38;;;17.05;;
59468;SDS011;45277;52.768;18.262;2023-02-28T05:06:48;33.72;;;17.00;;
59468;SDS011;45277;52.768;18.262;2023-02-28T05:08:19;34.10;;;15.73;;
59468;SDS011;45277;52.768;18.262;2023-02-28T05:09:51;33.83;;;16.95;;
59468;SDS011;45277;52.768;18.262;2023-02-28T05:11:27;39.58;;;16.08;;
59468;SDS011;45277;52.768;18.262;2023-02-28T05:13:05;32.13;;;16.48;;
59468;SDS011;45277;52.768;18.262;2023-02-28T05:14:37;30.83;;;15.90;;
59468;SDS011;45277;52.768;18.262;2023-02-28T05:16:08;33.10;;;16.77;;
59468;SDS011;45277;52.768;18.262;2023-02-28T05:17:40;35.78;;;16.08;;
59468;SDS011;45277;52.768;18.262;2023-02-28T05:19:12;34.67;;;17.15;;
59468;SDS011;45277;52.768;18.262;2023-02-28T05:20:43;34.53;;;16.92;;
59468;SDS011;45277;52.768;18.262;2023-02-28T05:22:15;35.95;;;17.17;;
59468;SDS011;45277;52.768;18.262;2023-02-28T05:23:47;41.97;;;18.95;;
59468;SDS011;45277;52.768;18.262;2023-02-28T05:25:19;39.83;;;19.17;;
59468;SDS011;45277;52.768;18.262;2023-02-28T05:26:54;36.72;;;19.13;;
59468;SDS011;45277;52.768;18.262;2023-02-28T05:28:26;50.33;;;19.40;;
59468;SDS011;45277;52.768;18.262;2023-02-28T05:29:58;43.83;;;20.50;;
59468;SDS011;45277;52.768;18.262;2023-02-28T05:31:29;37.80;;;18.83;;
59468;SDS011;45277;52.768;18.262;2023-02-28T05:33:01;39.92;;;18.75;;
59468;SDS011;45277;52.768;18.262;2023-02-28T05:34:33;37.20;;;19.38;;
59468;SDS011;45277;52.768;18.262;2023-02-28T05:36:04;34.97;;;17.60;;
59468;SDS011;45277;52.768;18.262;2023-02-28T05:37:37;35.80;;;17.95;;
59468;SDS011;45277;52.768;18.262;2023-02-28T05:39:09;41.30;;;17.75;;
59468;SDS011;45277;52.768;18.262;2023-02-28T05:40:43;35.05;;;17.60;;
59468;SDS011;45277;52.768;18.262;2023-02-28T05:42:14;40.47;;;16.75;;
59468;SDS011;45277;52.768;18.262;2023-02-28T05:43:46;34.83;;;17.73;;
59468;SDS011;45277;52.768;18.262;2023-02-28T05:45:17;36.47;;;16.95;;
59468;SDS011;45277;52.768;18.262;2023-02-28T05:46:49;37.10;;;18.58;;
59468;SDS011;45277;52.768;18.262;2023-02-28T05:48:20;39.90;;;17.48;;
59468;SDS011;45277;52.768;18.262;2023-02-28T05:49:52;35.88;;;17.42;;
59468;SDS011;45277;52.768;18.262;2023-02-28T05:51:24;31.95;;;17.48;;
59468;SDS011;45277;52.768;18.262;2023-02-28T05:52:55;37.05;;;17.65;;
59468;SDS011;45277;52.768;18.262;2023-02-28T05:54:26;33.03;;;17.23;;
59468;SDS011;45277;52.768;18.262;2023-02-28T05:55:58;37.25;;;18.30;;
59468;SDS011;45277;52.768;18.262;2023-02-28T05:57:30;35.85;;;17.27;;
59468;SDS011;45277;52.768;18.262;2023-02-28T05:59:01;35.55;;;17.85;;
59468;SDS011;45277;52.768;18.262;2023-02-28T06:00:33;29.65;;;16.48;;
59468;SDS011;45277;52.768;18.262;2023-02-28T06:02:05;39.13;;;16.83;;
59468;SDS011;45277;52.768;18.262;2023-02-28T06:03:41;37.30;;;17.23;;
59468;SDS011;45277;52.768;18.262;2023-02-28T06:05:14;36.88;;;16.98;;
59468;SDS011;45277;52.768;18.262;2023-02-28T06:06:47;44.17;;;18.27;;
59468;SDS011;45277;52.768;18.262;2023-02-28T06:08:19;37.92;;;18.05;;
59468;SDS011;45277;52.768;18.262;2023-02-28T06:09:51;37.40;;;18.10;;
59468;SDS011;45277;52.768;18.262;2023-02-28T06:11:23;38.25;;;18.80;;
59468;SDS011;45277;52.768;18.262;2023-02-28T06:12:59;46.58;;;21.73;;
59468;SDS011;45277;52.768;18.262;2023-02-28T06:14:33;43.28;;;20.27;;
59468;SDS011;45277;52.768;18.262;2023-02-28T06:16:05;39.88;;;20.00;;
59468;SDS011;45277;52.768;18.262;2023-02-28T06:17:37;40.55;;;18.60;;
59468;SDS011;45277;52.768;18.262;2023-02-28T06:19:09;40.20;;;19.67;;
59468;SDS011;45277;52.768;18.262;2023-02-28T06:20:41;46.05;;;20.90;;
59468;SDS011;45277;52.768;18.262;2023-02-28T06:22:13;42.58;;;21.83;;
59468;SDS011;45277;52.768;18.262;2023-02-28T06:23:44;42.70;;;20.80;;
59468;SDS011;45277;52.768;18.262;2023-02-28T06:25:16;53.13;;;21.63;;
59468;SDS011;45277;52.768;18.262;2023-02-28T06:26:48;42.13;;;20.98;;
59468;SDS011;45277;52.768;18.262;2023-02-28T06:28:20;49.40;;;25.25;;
59468;SDS011;45277;52.768;18.262;2023-02-28T06:29:53;51.45;;;24.13;;
59468;SDS011;45277;52.768;18.262;2023-02-28T06:31:26;54.83;;;25.65;;
59468;SDS011;45277;52.768;18.262;2023-02-28T06:32:59;49.38;;;23.92;;
59468;SDS011;45277;52.768;18.262;2023-02-28T06:34:31;56.75;;;27.70;;
59468;SDS011;45277;52.768;18.262;2023-02-28T06:36:04;74.13;;;33.13;;
59468;SDS011;45277;52.768;18.262;2023-02-28T06:37:37;77.85;;;33.63;;
59468;SDS011;45277;52.768;18.262;2023-02-28T06:39:09;71.90;;;34.15;;
59468;SDS011;45277;52.768;18.262;2023-02-28T06:40:40;81.95;;;36.38;;
59468;SDS011;45277;52.768;18.262;2023-02-28T06:42:12;79.80;;;36.33;;
59468;SDS011;45277;52.768;18.262;2023-02-28T06:43:43;76.50;;;32.58;;
59468;SDS011;45277;52.768;18.262;2023-02-28T06:45:15;63.85;;;30.90;;
59468;SDS011;45277;52.768;18.262;2023-02-28T06:46:47;83.10;;;34.70;;
59468;SDS011;45277;52.768;18.262;2023-02-28T06:48:18;84.90;;;36.50;;
59468;SDS011;45277;52.768;18.262;2023-02-28T06:49:50;84.43;;;35.88;;
59468;SDS011;45277;52.768;18.262;2023-02-28T06:51:22;94.50;;;39.83;;
59468;SDS011;45277;52.768;18.262;2023-02-28T06:52:54;131.23;;;47.13;;
59468;SDS011;45277;52.768;18.262;2023-02-28T06:54:26;175.95;;;59.65;;
59468;SDS011;45277;52.768;18.262;2023-02-28T06:55:58;164.88;;;61.47;;
59468;SDS011;45277;52.768;18.262;2023-02-28T06:57:30;146.25;;;52.33;;
59468;SDS011;45277;52.768;18.262;2023-02-28T06:59:03;159.23;;;53.65;;
59468;SDS011;45277;52.768;18.262;2023-02-28T07:00:35;132.40;;;47.60;;
59468;SDS011;45277;52.768;18.262;2023-02-28T07:02:07;102.28;;;42.03;;
59468;SDS011;45277;52.768;18.262;2023-02-28T07:03:39;78.47;;;33.70;;
59468;SDS011;45277;52.768;18.262;2023-02-28T07:05:11;78.32;;;33.03;;
59468;SDS011;45277;52.768;18.262;2023-02-28T07:06:42;73.03;;;32.78;;
59468;SDS011;45277;52.768;18.262;2023-02-28T07:08:13;61.00;;;29.40;;
59468;SDS011;45277;52.768;18.262;2023-02-28T07:09:45;128.10;;;46.33;;
59468;SDS011;45277;52.768;18.262;2023-02-28T07:11:17;70.22;;;33.65;;
59468;SDS011;45277;52.768;18.262;2023-02-28T07:12:48;64.50;;;29.63;;
59468;SDS011;45277;52.768;18.262;2023-02-28T07:14:20;64.70;;;28.23;;
59468;SDS011;45277;52.768;18.262;2023-02-28T07:15:59;57.03;;;28.67;;
59468;SDS011;45277;52.768;18.262;2023-02-28T07:17:32;72.35;;;35.55;;
59468;SDS011;45277;52.768;18.262;2023-02-28T07:19:04;74.63;;;34.17;;
59468;SDS011;45277;52.768;18.262;2023-02-28T07:20:35;64.47;;;30.90;;
59468;SDS011;45277;52.768;18.262;2023-02-28T07:22:07;58.35;;;29.95;;
59468;SDS011;45277;52.768;18.262;2023-02-28T07:23:39;62.28;;;29.77;;
59468;SDS011;45277;52.768;18.262;2023-02-28T07:25:11;61.83;;;29.15;;
59468;SDS011;45277;52.768;18.262;2023-02-28T07:26:42;65.50;;;30.67;;
59468;SDS011;45277;52.768;18.262;2023-02-28T07:28:14;79.43;;;31.85;;
59468;SDS011;45277;52.768;18.262;2023-02-28T07:29:45;103.47;;;38.85;;
59468;SDS011;45277;52.768;18.262;2023-02-28T07:31:17;116.32;;;43.15;;
59468;SDS011;45277;52.768;18.262;2023-02-28T07:32:49;118.78;;;45.78;;
59468;SDS011;45277;52.768;18.262;2023-02-28T07:34:21;129.77;;;49.83;;
59468;SDS011;45277;52.768;18.262;2023-02-28T07:35:56;123.25;;;47.00;;
59468;SDS011;45277;52.768;18.262;2023-02-28T07:37:32;63.58;;;30.52;;
59468;SDS011;45277;52.768;18.262;2023-02-28T07:39:07;62.13;;;29.33;;
59468;SDS011;45277;52.768;18.262;2023-02-28T07:40:39;49.00;;;25.60;;
59468;SDS011;45277;52.768;18.262;2023-02-28T07:42:11;62.75;;;28.10;;
59468;SDS011;45277;52.768;18.262;2023-02-28T07:43:43;67.72;;;30.90;;
59468;SDS011;45277;52.768;18.262;2023-02-28T07:45:15;58.03;;;29.05;;
59468;SDS011;45277;52.768;18.262;2023-02-28T07:46:47;57.58;;;30.00;;
59468;SDS011;45277;52.768;18.262;2023-02-28T07:48:18;60.28;;;30.85;;
59468;SDS011;45277;52.768;18.262;2023-02-28T07:49:50;63.22;;;30.90;;
59468;SDS011;45277;52.768;18.262;2023-02-28T07:51:22;64.05;;;32.17;;
59468;SDS011;45277;52.768;18.262;2023-02-28T07:52:53;75.70;;;32.08;;
59468;SDS011;45277;52.768;18.262;2023-02-28T07:54:24;88.75;;;36.40;;
59468;SDS011;45277;52.768;18.262;2023-02-28T07:55:57;89.03;;;40.53;;
59468;SDS011;45277;52.768;18.262;2023-02-28T07:57:29;63.40;;;30.42;;
59468;SDS011;45277;52.768;18.262;2023-02-28T07:59:00;81.05;;;34.13;;
59468;SDS011;45277;52.768;18.262;2023-02-28T08:00:32;76.40;;;35.92;;
59468;SDS011;45277;52.768;18.262;2023-02-28T08:02:03;101.97;;;41.70;;
59468;SDS011;45277;52.768;18.262;2023-02-28T08:03:35;121.50;;;52.15;;
59468;SDS011;45277;52.768;18.262;2023-02-28T08:05:07;124.45;;;53.33;;
59468;SDS011;45277;52.768;18.262;2023-02-28T08:06:39;103.85;;;49.30;;
59468;SDS011;45277;52.768;18.262;2023-02-28T08:08:11;90.45;;;40.20;;
59468;SDS011;45277;52.768;18.262;2023-02-28T08:09:44;86.47;;;37.63;;
59468;SDS011;45277;52.768;18.262;2023-02-28T08:11:16;90.13;;;39.28;;
59468;SDS011;45277;52.768;18.262;2023-02-28T08:12:48;85.32;;;37.20;;
59468;SDS011;45277;52.768;18.262;2023-02-28T08:14:20;87.32;;;34.92;;
59468;SDS011;45277;52.768;18.262;2023-02-28T08:15:51;77.43;;;37.30;;
59468;SDS011;45277;52.768;18.262;2023-02-28T08:17:23;75.93;;;34.65;;
59468;SDS011;45277;52.768;18.262;2023-02-28T08:18:55;81.35;;;36.60;;
59468;SDS011;45277;52.768;18.262;2023-02-28T08:20:26;91.28;;;39.42;;
59468;SDS011;45277;52.768;18.262;2023-02-28T08:21:57;90.22;;;36.38;;
59468;SDS011;45277;52.768;18.262;2023-02-28T08:23:29;110.32;;;42.95;;
59468;SDS011;45277;52.768;18.262;2023-02-28T08:25:00;83.40;;;34.90;;
59468;SDS011;45277;52.768;18.262;2023-02-28T08:26:32;68.22;;;32.15;;
59468;SDS011;45277;52.768;18.262;2023-02-28T08:28:04;79.95;;;36.42;;
59468;SDS011;45277;52.768;18.262;2023-02-28T08:29:38;55.65;;;29.05;;
59468;SDS011;45277;52.768;18.262;2023-02-28T08:31:10;63.88;;;29.75;;
59468;SDS011;45277;52.768;18.262;2023-02-28T08:32:44;76.28;;;34.40;;
59468;SDS011;45277;52.768;18.262;2023-02-28T08:34:16;63.50;;;32.17;;
59468;SDS011;45277;52.768;18.262;2023-02-28T08:35:47;67.80;;;31.10;;
59468;SDS011;45277;52.768;18.262;2023-02-28T08:37:19;53.75;;;26.58;;
59468;SDS011;45277;52.768;18.262;2023-02-28T08:38:51;62.80;;;29.70;;
59468;SDS011;45277;52.768;18.262;2023-02-28T08:40:22;47.65;;;26.35;;
59468;SDS011;45277;52.768;18.262;2023-02-28T08:41:54;50.78;;;24.60;;
59468;SDS011;45277;52.768;18.262;2023-02-28T08:43:25;65.75;;;29.50;;
59468;SDS011;45277;52.768;18.262;2023-02-28T08:44:57;62.60;;;31.70;;
59468;SDS011;45277;52.768;18.262;2023-02-28T08:46:28;68.65;;;31.00;;
59468;SDS011;45277;52.768;18.262;2023-02-28T08:48:00;56.97;;;26.63;;
59468;SDS011;45277;52.768;18.262;2023-02-28T08:49:31;76.70;;;33.28;;
59468;SDS011;45277;52.768;18.262;2023-02-28T08:51:04;41.15;;;22.83;;
59468;SDS011;45277;52.768;18.262;2023-02-28T08:52:42;46.92;;;24.98;;
59468;SDS011;45277;52.768;18.262;2023-02-28T08:54:14;61.88;;;28.75;;
59468;SDS011;45277;52.768;18.262;2023-02-28T08:55:59;78.68;;;31.98;;
59468;SDS011;45277;52.768;18.262;2023-02-28T08:57:35;79.55;;;34.60;;
59468;SDS011;45277;52.768;18.262;2023-02-28T08:59:08;44.13;;;21.67;;
59468;SDS011;45277;52.768;18.262;2023-02-28T09:00:40;35.35;;;18.05;;
59468;SDS011;45277;52.768;18.262;2023-02-28T09:02:14;48.15;;;25.33;;
59468;SDS011;45277;52.768;18.262;2023-02-28T09:03:46;45.83;;;23.58;;
59468;SDS011;45277;52.768;18.262;2023-02-28T09:05:19;52.55;;;24.95;;
59468;SDS011;45277;52.768;18.262;2023-02-28T09:06:50;54.60;;;25.70;;
59468;SDS011;45277;52.768;18.262;2023-02-28T09:08:22;50.67;;;26.45;;
59468;SDS011;45277;52.768;18.262;2023-02-28T09:09:54;48.50;;;22.98;;
59468;SDS011;45277;52.768;18.262;2023-02-28T09:11:26;42.95;;;20.20;;
59468;SDS011;45277;52.768;18.262;2023-02-28T09:12:58;45.95;;;23.25;;
59468;SDS011;45277;52.768;18.262;2023-02-28T09:14:30;56.33;;;27.73;;
59468;SDS011;45277;52.768;18.262;2023-02-28T09:16:02;58.70;;;24.38;;
59468;SDS011;45277;52.768;18.262;2023-02-28T09:17:35;46.53;;;24.27;;
59468;SDS011;45277;52.768;18.262;2023-02-28T09:19:10;67.93;;;26.52;;
59468;SDS011;45277;52.768;18.262;2023-02-28T09:20:43;55.30;;;24.73;;
59468;SDS011;45277;52.768;18.262;2023-02-28T09:22:15;42.58;;;21.48;;
59468;SDS011;45277;52.768;18.262;2023-02-28T09:23:48;49.55;;;26.02;;
59468;SDS011;45277;52.768;18.262;2023-02-28T09:25:21;44.10;;;22.02;;
59468;SDS011;45277;52.768;18.262;2023-02-28T09:26:52;92.57;;;34.55;;
59468;SDS011;45277;52.768;18.262;2023-02-28T09:28:24;57.53;;;26.58;;
59468;SDS011;45277;52.768;18.262;2023-02-28T09:29:55;63.50;;;28.75;;
59468;SDS011;45277;52.768;18.262;2023-02-28T09:31:27;53.75;;;26.75;;